sensor_id;sensor_type;location;lat;lon;timestamp;P1;durP1;ratioP1;P2;durP2;ratioP2
2868;SDS011;1442;47.448;8.582;2023-04-03T00:01:48;4.90;;;4.40;;
2868;SDS011;1442;47.448;8.582;2023-04-03T00:04:15;5.70;;;4.60;;
2868;SDS011;1442;47.448;8.582;2023-04-03T00:06:42;4.95;;;4.35;;
2868;SDS011;1442;47.448;8.582;2023-04-03T00:09:10;5.05;;;4.13;;
2868;SDS011;1442;47.448;8.582;2023-04-03T00:11:38;6.13;;;4.30;;
2868;SDS011;1442;47.448;8.582;2023-04-03T00:14:05;5.30;;;4.30;;
2868;SDS011;1442;47.448;8.582;2023-04-03T00:16:32;6.50;;;4.53;;
2868;SDS011;1442;47.448;8.582;2023-04-03T00:18:59;7.15;;;4.65;;
2868;SDS011;1442;47.448;8.582;2023-04-03T00:21:26;6.35;;;3.97;;
2868;SDS011;1442;47.448;8.582;2023-04-03T00:23:53;5.40;;;4.28;;
2868;SDS011;1442;47.448;8.582;2023-04-03T00:26:22;4.22;;;3.58;;
2868;SDS011;1442;47.448;8.582;2023-04-03T00:28:49;4.20;;;3.38;;
2868;SDS011;1442;47.448;8.582;2023-04-03T00:31:16;4.82;;;4.03;;
2868;SDS011;1442;47.448;8.582;2023-04-03T00:33:44;6.32;;;3.53;;
2868;SDS011;1442;47.448;8.582;2023-04-03T00:36:11;5.38;;;4.10;;
2868;SDS011;1442;47.448;8.582;2023-04-03T00:38:39;5.28;;;3.47;;
2868;SDS011;1442;47.448;8.582;2023-04-03T00:41:06;5.50;;;4.10;;
2868;SDS011;1442;47.448;8.582;2023-04-03T00:43:35;6.50;;;3.80;;
2868;SDS011;1442;47.448;8.582;2023-04-03T00:46:02;4.68;;;3.67;;
2868;SDS011;1442;47.448;8.582;2023-04-03T00:48:30;8.18;;;4.22;;
2868;SDS011;1442;47.448;8.582;2023-04-03T00:50:58;3.92;;;3.35;;
2868;SDS011;1442;47.448;8.582;2023-04-03T00:53:27;4.68;;;3.53;;
2868;SDS011;1442;47.448;8.582;2023-04-03T00:55:55;4.30;;;3.58;;
2868;SDS011;1442;47.448;8.582;2023-04-03T00:58:25;6.45;;;3.97;;
2868;SDS011;1442;47.448;8.582;2023-04-03T01:00:55;5.45;;;3.40;;
2868;SDS011;1442;47.448;8.582;2023-04-03T01:03:24;5.05;;;3.95;;
2868;SDS011;1442;47.448;8.582;2023-04-03T01:05:51;3.70;;;3.25;;
2868;SDS011;1442;47.448;8.582;2023-04-03T01:08:19;4.32;;;3.53;;
2868;SDS011;1442;47.448;8.582;2023-04-03T01:10:46;4.20;;;3.35;;
2868;SDS011;1442;47.448;8.582;2023-04-03T01:13:18;5.85;;;3.75;;
2868;SDS011;1442;47.448;8.582;2023-04-03T01:15:45;4.45;;;3.83;;
2868;SDS011;1442;47.448;8.582;2023-04-03T01:18:14;6.72;;;3.88;;
2868;SDS011;1442;47.448;8.582;2023-04-03T01:20:45;8.20;;;4.13;;
2868;SDS011;1442;47.448;8.582;2023-04-03T01:23:22;6.25;;;4.05;;
2868;SDS011;1442;47.448;8.582;2023-04-03T01:25:52;5.68;;;4.32;;
2868;SDS011;1442;47.448;8.582;2023-04-03T01:28:20;4.93;;;4.20;;
2868;SDS011;1442;47.448;8.582;2023-04-03T01:30:48;6.03;;;4.15;;
2868;SDS011;1442;47.448;8.582;2023-04-03T01:33:19;9.15;;;4.38;;
2868;SDS011;1442;47.448;8.582;2023-04-03T01:35:46;5.68;;;4.35;;
2868;SDS011;1442;47.448;8.582;2023-04-03T01:38:14;5.28;;;4.10;;
2868;SDS011;1442;47.448;8.582;2023-04-03T01:40:41;5.57;;;4.20;;
2868;SDS011;1442;47.448;8.582;2023-04-03T01:43:08;6.50;;;4.60;;
2868;SDS011;1442;47.448;8.582;2023-04-03T01:45:35;6.30;;;4.43;;
2868;SDS011;1442;47.448;8.582;2023-04-03T01:48:02;4.90;;;4.03;;
2868;SDS011;1442;47.448;8.582;2023-04-03T01:50:31;6.38;;;4.70;;
2868;SDS011;1442;47.448;8.582;2023-04-03T01:52:58;7.93;;;5.03;;
2868;SDS011;1442;47.448;8.582;2023-04-03T01:55:25;5.80;;;4.35;;
2868;SDS011;1442;47.448;8.582;2023-04-03T01:57:53;4.97;;;4.07;;
2868;SDS011;1442;47.448;8.582;2023-04-03T02:00:20;7.40;;;4.90;;
2868;SDS011;1442;47.448;8.582;2023-04-03T02:02:47;5.28;;;4.57;;
2868;SDS011;1442;47.448;8.582;2023-04-03T02:05:14;8.10;;;5.00;;
2868;SDS011;1442;47.448;8.582;2023-04-03T02:07:43;7.50;;;4.95;;
2868;SDS011;1442;47.448;8.582;2023-04-03T02:10:10;8.27;;;4.88;;
2868;SDS011;1442;47.448;8.582;2023-04-03T02:12:38;6.63;;;5.07;;
2868;SDS011;1442;47.448;8.582;2023-04-03T02:15:05;6.20;;;4.97;;
2868;SDS011;1442;47.448;8.582;2023-04-03T02:17:32;6.22;;;4.63;;
2868;SDS011;1442;47.448;8.582;2023-04-03T02:20:00;7.28;;;4.47;;
2868;SDS011;1442;47.448;8.582;2023-04-03T02:22:28;6.53;;;4.95;;
2868;SDS011;1442;47.448;8.582;2023-04-03T02:24:56;6.40;;;4.72;;
2868;SDS011;1442;47.448;8.582;2023-04-03T02:27:24;7.63;;;4.55;;
2868;SDS011;1442;47.448;8.582;2023-04-03T02:29:52;6.13;;;4.38;;
2868;SDS011;1442;47.448;8.582;2023-04-03T02:32:19;6.32;;;4.35;;
2868;SDS011;1442;47.448;8.582;2023-04-03T02:34:46;5.03;;;3.88;;
2868;SDS011;1442;47.448;8.582;2023-04-03T02:37:13;4.15;;;3.75;;
2868;SDS011;1442;47.448;8.582;2023-04-03T02:39:40;5.57;;;3.60;;
2868;SDS011;1442;47.448;8.582;2023-04-03T02:42:09;5.13;;;3.45;;
2868;SDS011;1442;47.448;8.582;2023-04-03T02:44:36;5.40;;;3.78;;
2868;SDS011;1442;47.448;8.582;2023-04-03T02:47:03;3.60;;;3.30;;
2868;SDS011;1442;47.448;8.582;2023-04-03T02:49:31;3.47;;;3.10;;
2868;SDS011;1442;47.448;8.582;2023-04-03T02:51:58;4.72;;;3.75;;
2868;SDS011;1442;47.448;8.582;2023-04-03T02:54:25;4.30;;;3.17;;
2868;SDS011;1442;47.448;8.582;2023-04-03T02:56:55;4.57;;;3.72;;
2868;SDS011;1442;47.448;8.582;2023-04-03T02:59:24;4.40;;;3.90;;
2868;SDS011;1442;47.448;8.582;2023-04-03T03:01:51;7.18;;;3.83;;
2868;SDS011;1442;47.448;8.582;2023-04-03T03:04:18;5.75;;;3.35;;
2868;SDS011;1442;47.448;8.582;2023-04-03T03:06:45;5.05;;;3.85;;
2868;SDS011;1442;47.448;8.582;2023-04-03T03:09:13;7.15;;;3.25;;
2868;SDS011;1442;47.448;8.582;2023-04-03T03:11:40;5.55;;;3.97;;
2868;SDS011;1442;47.448;8.582;2023-04-03T03:14:07;5.93;;;4.20;;
2868;SDS011;1442;47.448;8.582;2023-04-03T03:16:36;6.25;;;4.07;;
2868;SDS011;1442;47.448;8.582;2023-04-03T03:19:03;5.85;;;4.15;;
2868;SDS011;1442;47.448;8.582;2023-04-03T03:21:31;4.32;;;3.58;;
2868;SDS011;1442;47.448;8.582;2023-04-03T03:23:58;4.30;;;3.75;;
2868;SDS011;1442;47.448;8.582;2023-04-03T03:26:26;4.80;;;4.00;;
2868;SDS011;1442;47.448;8.582;2023-04-03T03:28:53;4.85;;;3.97;;
2868;SDS011;1442;47.448;8.582;2023-04-03T03:31:20;6.60;;;4.25;;
2868;SDS011;1442;47.448;8.582;2023-04-03T03:33:48;5.78;;;4.38;;
2868;SDS011;1442;47.448;8.582;2023-04-03T03:36:16;5.50;;;4.35;;
2868;SDS011;1442;47.448;8.582;2023-04-03T03:38:43;4.57;;;4.10;;
2868;SDS011;1442;47.448;8.582;2023-04-03T03:41:10;5.68;;;4.50;;
2868;SDS011;1442;47.448;8.582;2023-04-03T03:43:37;5.53;;;4.60;;
2868;SDS011;1442;47.448;8.582;2023-04-03T03:46:04;6.10;;;5.10;;
2868;SDS011;1442;47.448;8.582;2023-04-03T03:48:34;4.38;;;3.97;;
2868;SDS011;1442;47.448;8.582;2023-04-03T03:51:02;5.40;;;4.30;;
2868;SDS011;1442;47.448;8.582;2023-04-03T03:53:29;4.75;;;4.25;;
2868;SDS011;1442;47.448;8.582;2023-04-03T03:55:57;6.50;;;4.38;;
2868;SDS011;1442;47.448;8.582;2023-04-03T03:58:24;6.32;;;4.75;;
2868;SDS011;1442;47.448;8.582;2023-04-03T04:00:51;4.75;;;4.25;;
2868;SDS011;1442;47.448;8.582;2023-04-03T04:03:18;6.35;;;4.40;;
2868;SDS011;1442;47.448;8.582;2023-04-03T04:05:45;5.68;;;4.60;;
2868;SDS011;1442;47.448;8.582;2023-04-03T04:08:14;5.68;;;4.57;;
2868;SDS011;1442;47.448;8.582;2023-04-03T04:10:41;5.72;;;4.88;;
2868;SDS011;1442;47.448;8.582;2023-04-03T04:13:08;5.47;;;4.50;;
2868;SDS011;1442;47.448;8.582;2023-04-03T04:15:35;6.75;;;4.75;;
2868;SDS011;1442;47.448;8.582;2023-04-03T04:18:03;9.02;;;5.03;;
2868;SDS011;1442;47.448;8.582;2023-04-03T04:20:30;6.88;;;4.45;;
2868;SDS011;1442;47.448;8.582;2023-04-03T04:22:57;7.75;;;4.70;;
2868;SDS011;1442;47.448;8.582;2023-04-03T04:25:26;5.63;;;4.93;;
2868;SDS011;1442;47.448;8.582;2023-04-03T04:27:53;4.95;;;4.30;;
2868;SDS011;1442;47.448;8.582;2023-04-03T04:30:20;6.82;;;4.30;;
2868;SDS011;1442;47.448;8.582;2023-04-03T04:32:47;6.45;;;4.57;;
2868;SDS011;1442;47.448;8.582;2023-04-03T04:35:14;7.43;;;4.88;;
2868;SDS011;1442;47.448;8.582;2023-04-03T04:37:41;7.10;;;4.40;;
2868;SDS011;1442;47.448;8.582;2023-04-03T04:40:09;8.23;;;4.68;;
2868;SDS011;1442;47.448;8.582;2023-04-03T04:42:38;7.57;;;5.13;;
2868;SDS011;1442;47.448;8.582;2023-04-03T04:45:06;7.55;;;4.63;;
2868;SDS011;1442;47.448;8.582;2023-04-03T04:47:33;6.90;;;4.63;;
2868;SDS011;1442;47.448;8.582;2023-04-03T04:50:00;6.95;;;4.50;;
2868;SDS011;1442;47.448;8.582;2023-04-03T04:52:27;6.65;;;4.60;;
2868;SDS011;1442;47.448;8.582;2023-04-03T04:54:55;5.60;;;4.18;;
2868;SDS011;1442;47.448;8.582;2023-04-03T04:57:22;4.43;;;4.03;;
2868;SDS011;1442;47.448;8.582;2023-04-03T04:59:51;7.00;;;5.07;;
2868;SDS011;1442;47.448;8.582;2023-04-03T05:02:18;5.78;;;4.50;;
2868;SDS011;1442;47.448;8.582;2023-04-03T05:04:45;6.00;;;4.35;;
2868;SDS011;1442;47.448;8.582;2023-04-03T05:07:12;4.95;;;3.88;;
2868;SDS011;1442;47.448;8.582;2023-04-03T05:09:39;4.38;;;3.85;;
2868;SDS011;1442;47.448;8.582;2023-04-03T05:12:07;8.85;;;4.20;;
2868;SDS011;1442;47.448;8.582;2023-04-03T05:14:34;16.85;;;5.10;;
2868;SDS011;1442;47.448;8.582;2023-04-03T05:17:03;9.32;;;4.55;;
2868;SDS011;1442;47.448;8.582;2023-04-03T05:19:30;5.95;;;4.57;;
2868;SDS011;1442;47.448;8.582;2023-04-03T05:21:57;17.92;;;5.72;;
2868;SDS011;1442;47.448;8.582;2023-04-03T05:24:24;9.80;;;4.78;;
2868;SDS011;1442;47.448;8.582;2023-04-03T05:26:52;11.60;;;5.13;;
2868;SDS011;1442;47.448;8.582;2023-04-03T05:29:19;10.68;;;4.10;;
2868;SDS011;1442;47.448;8.582;2023-04-03T05:31:46;6.05;;;3.90;;
2868;SDS011;1442;47.448;8.582;2023-04-03T05:34:17;4.97;;;3.85;;
2868;SDS011;1442;47.448;8.582;2023-04-03T05:36:44;11.55;;;4.15;;
2868;SDS011;1442;47.448;8.582;2023-04-03T05:39:11;10.57;;;4.10;;
2868;SDS011;1442;47.448;8.582;2023-04-03T05:41:39;6.53;;;4.57;;
2868;SDS011;1442;47.448;8.582;2023-04-03T05:44:06;6.03;;;4.07;;
2868;SDS011;1442;47.448;8.582;2023-04-03T05:46:33;5.50;;;4.05;;
2868;SDS011;1442;47.448;8.582;2023-04-03T05:49:00;6.10;;;3.75;;
2868;SDS011;1442;47.448;8.582;2023-04-03T05:51:30;7.28;;;3.15;;
2868;SDS011;1442;47.448;8.582;2023-04-03T05:53:59;5.28;;;3.72;;
2868;SDS011;1442;47.448;8.582;2023-04-03T05:56:27;5.75;;;4.10;;
2868;SDS011;1442;47.448;8.582;2023-04-03T05:58:55;5.47;;;3.60;;
2868;SDS011;1442;47.448;8.582;2023-04-03T06:01:22;5.10;;;3.25;;
2868;SDS011;1442;47.448;8.582;2023-04-03T06:03:49;5.32;;;3.45;;
2868;SDS011;1442;47.448;8.582;2023-04-03T06:06:16;18.30;;;3.38;;
2868;SDS011;1442;47.448;8.582;2023-04-03T06:08:45;4.30;;;3.33;;
2868;SDS011;1442;47.448;8.582;2023-04-03T06:11:12;3.38;;;3.00;;
2868;SDS011;1442;47.448;8.582;2023-04-03T06:13:40;5.10;;;3.53;;
2868;SDS011;1442;47.448;8.582;2023-04-03T06:16:08;9.65;;;4.00;;
2868;SDS011;1442;47.448;8.582;2023-04-03T06:18:35;4.82;;;3.60;;
2868;SDS011;1442;47.448;8.582;2023-04-03T06:21:03;5.00;;;3.33;;
2868;SDS011;1442;47.448;8.582;2023-04-03T06:23:32;14.55;;;4.03;;
2868;SDS011;1442;47.448;8.582;2023-04-03T06:26:01;12.70;;;3.80;;
2868;SDS011;1442;47.448;8.582;2023-04-03T06:28:28;19.75;;;4.28;;
2868;SDS011;1442;47.448;8.582;2023-04-03T06:30:55;9.70;;;3.20;;
2868;SDS011;1442;47.448;8.582;2023-04-03T06:33:22;11.23;;;3.25;;
2868;SDS011;1442;47.448;8.582;2023-04-03T06:35:54;9.77;;;3.28;;
2868;SDS011;1442;47.448;8.582;2023-04-03T06:38:22;7.25;;;3.00;;
2868;SDS011;1442;47.448;8.582;2023-04-03T06:40:49;3.58;;;3.15;;
2868;SDS011;1442;47.448;8.582;2023-04-03T06:43:18;7.22;;;3.25;;
2868;SDS011;1442;47.448;8.582;2023-04-03T06:45:45;5.90;;;3.50;;
2868;SDS011;1442;47.448;8.582;2023-04-03T06:48:12;18.95;;;3.42;;
2868;SDS011;1442;47.448;8.582;2023-04-03T06:50:40;8.48;;;3.55;;
2868;SDS011;1442;47.448;8.582;2023-04-03T06:53:07;5.28;;;2.83;;
2868;SDS011;1442;47.448;8.582;2023-04-03T06:55:34;5.57;;;3.25;;
2868;SDS011;1442;47.448;8.582;2023-04-03T06:58:02;4.22;;;2.53;;
2868;SDS011;1442;47.448;8.582;2023-04-03T07:00:31;6.38;;;3.28;;
2868;SDS011;1442;47.448;8.582;2023-04-03T07:02:58;5.03;;;2.92;;
2868;SDS011;1442;47.448;8.582;2023-04-03T07:05:25;4.00;;;3.00;;
2868;SDS011;1442;47.448;8.582;2023-04-03T07:07:53;3.80;;;2.90;;
2868;SDS011;1442;47.448;8.582;2023-04-03T07:10:20;5.78;;;2.90;;
2868;SDS011;1442;47.448;8.582;2023-04-03T07:12:47;2.75;;;2.53;;
2868;SDS011;1442;47.448;8.582;2023-04-03T07:15:15;3.30;;;2.70;;
2868;SDS011;1442;47.448;8.582;2023-04-03T07:17:43;3.80;;;2.40;;
2868;SDS011;1442;47.448;8.582;2023-04-03T07:20:11;4.32;;;2.90;;
2868;SDS011;1442;47.448;8.582;2023-04-03T07:22:38;3.10;;;2.80;;
2868;SDS011;1442;47.448;8.582;2023-04-03T07:25:06;3.03;;;2.45;;
2868;SDS011;1442;47.448;8.582;2023-04-03T07:27:33;15.23;;;3.40;;
2868;SDS011;1442;47.448;8.582;2023-04-03T07:30:00;6.18;;;2.67;;
2868;SDS011;1442;47.448;8.582;2023-04-03T07:32:28;3.78;;;2.58;;
2868;SDS011;1442;47.448;8.582;2023-04-03T07:34:57;5.88;;;2.70;;
2868;SDS011;1442;47.448;8.582;2023-04-03T07:37:24;5.10;;;2.40;;
2868;SDS011;1442;47.448;8.582;2023-04-03T07:39:51;7.13;;;2.53;;
2868;SDS011;1442;47.448;8.582;2023-04-03T07:42:20;16.52;;;2.88;;
2868;SDS011;1442;47.448;8.582;2023-04-03T07:44:47;9.65;;;2.85;;
2868;SDS011;1442;47.448;8.582;2023-04-03T07:47:14;7.70;;;2.35;;
2868;SDS011;1442;47.448;8.582;2023-04-03T07:49:43;4.95;;;2.40;;
2868;SDS011;1442;47.448;8.582;2023-04-03T07:52:11;3.03;;;2.53;;
2868;SDS011;1442;47.448;8.582;2023-04-03T07:54:39;2.38;;;2.03;;
2868;SDS011;1442;47.448;8.582;2023-04-03T07:57:06;2.70;;;2.25;;
2868;SDS011;1442;47.448;8.582;2023-04-03T07:59:34;2.45;;;2.05;;
2868;SDS011;1442;47.448;8.582;2023-04-03T08:02:01;3.65;;;2.70;;
2868;SDS011;1442;47.448;8.582;2023-04-03T08:04:29;2.90;;;2.35;;
2868;SDS011;1442;47.448;8.582;2023-04-03T08:06:57;6.10;;;2.55;;
2868;SDS011;1442;47.448;8.582;2023-04-03T08:09:25;5.15;;;2.40;;
2868;SDS011;1442;47.448;8.582;2023-04-03T08:11:52;5.50;;;2.72;;
2868;SDS011;1442;47.448;8.582;2023-04-03T08:14:20;5.18;;;2.83;;
2868;SDS011;1442;47.448;8.582;2023-04-03T08:16:47;5.75;;;2.90;;
2868;SDS011;1442;47.448;8.582;2023-04-03T08:19:15;5.95;;;3.05;;
2868;SDS011;1442;47.448;8.582;2023-04-03T08:21:43;4.72;;;2.50;;
2868;SDS011;1442;47.448;8.582;2023-04-03T08:24:10;13.88;;;2.35;;
2868;SDS011;1442;47.448;8.582;2023-04-03T08:26:40;15.75;;;3.08;;
2868;SDS011;1442;47.448;8.582;2023-04-03T08:29:08;7.50;;;2.70;;
2868;SDS011;1442;47.448;8.582;2023-04-03T08:31:35;5.38;;;2.40;;
2868;SDS011;1442;47.448;8.582;2023-04-03T08:34:02;3.25;;;2.58;;
2868;SDS011;1442;47.448;8.582;2023-04-03T08:36:30;7.72;;;2.60;;
2868;SDS011;1442;47.448;8.582;2023-04-03T08:38:57;3.75;;;2.63;;
2868;SDS011;1442;47.448;8.582;2023-04-03T08:41:26;7.40;;;3.20;;
2868;SDS011;1442;47.448;8.582;2023-04-03T08:43:59;7.03;;;2.60;;
2868;SDS011;1442;47.448;8.582;2023-04-03T08:46:32;12.15;;;2.60;;
2868;SDS011;1442;47.448;8.582;2023-04-03T08:49:02;17.70;;;2.60;;
2868;SDS011;1442;47.448;8.582;2023-04-03T08:51:31;18.25;;;3.15;;
2868;SDS011;1442;47.448;8.582;2023-04-03T08:54:00;6.72;;;2.70;;
2868;SDS011;1442;47.448;8.582;2023-04-03T08:56:29;8.60;;;2.80;;
2868;SDS011;1442;47.448;8.582;2023-04-03T08:58:58;18.20;;;3.95;;
2868;SDS011;1442;47.448;8.582;2023-04-03T09:01:28;6.05;;;2.55;;
2868;SDS011;1442;47.448;8.582;2023-04-03T09:03:57;10.40;;;2.47;;
2868;SDS011;1442;47.448;8.582;2023-04-03T09:06:25;16.25;;;3.08;;
2868;SDS011;1442;47.448;8.582;2023-04-03T09:08:57;15.30;;;3.65;;
2868;SDS011;1442;47.448;8.582;2023-04-03T09:11:33;5.05;;;3.05;;
2868;SDS011;1442;47.448;8.582;2023-04-03T09:14:04;4.18;;;2.60;;
2868;SDS011;1442;47.448;8.582;2023-04-03T09:16:38;11.93;;;2.67;;
2868;SDS011;1442;47.448;8.582;2023-04-03T09:19:09;7.45;;;3.17;;
2868;SDS011;1442;47.448;8.582;2023-04-03T09:21:38;14.07;;;2.97;;
2868;SDS011;1442;47.448;8.582;2023-04-03T09:24:07;7.68;;;3.33;;
2868;SDS011;1442;47.448;8.582;2023-04-03T09:26:36;18.70;;;2.78;;
2868;SDS011;1442;47.448;8.582;2023-04-03T09:29:06;9.88;;;2.83;;
2868;SDS011;1442;47.448;8.582;2023-04-03T09:31:37;7.20;;;2.55;;
2868;SDS011;1442;47.448;8.582;2023-04-03T09:34:05;4.13;;;2.70;;
2868;SDS011;1442;47.448;8.582;2023-04-03T09:36:37;3.88;;;2.67;;
2868;SDS011;1442;47.448;8.582;2023-04-03T09:39:05;6.47;;;2.63;;
2868;SDS011;1442;47.448;8.582;2023-04-03T09:41:33;4.13;;;2.50;;
2868;SDS011;1442;47.448;8.582;2023-04-03T09:44:00;4.78;;;2.28;;
2868;SDS011;1442;47.448;8.582;2023-04-03T09:46:31;2.92;;;2.33;;
2868;SDS011;1442;47.448;8.582;2023-04-03T09:49:00;5.07;;;2.35;;
2868;SDS011;1442;47.448;8.582;2023-04-03T09:51:28;5.20;;;3.00;;
2868;SDS011;1442;47.448;8.582;2023-04-03T09:53:56;5.32;;;2.60;;
2868;SDS011;1442;47.448;8.582;2023-04-03T09:56:24;5.43;;;2.42;;
2868;SDS011;1442;47.448;8.582;2023-04-03T09:58:52;6.57;;;2.53;;
2868;SDS011;1442;47.448;8.582;2023-04-03T10:01:33;8.77;;;2.42;;
2868;SDS011;1442;47.448;8.582;2023-04-03T10:04:06;15.68;;;2.90;;
2868;SDS011;1442;47.448;8.582;2023-04-03T10:06:35;3.33;;;2.00;;
2868;SDS011;1442;47.448;8.582;2023-04-03T10:09:03;3.83;;;2.60;;
2868;SDS011;1442;47.448;8.582;2023-04-03T10:11:30;6.07;;;3.03;;
2868;SDS011;1442;47.448;8.582;2023-04-03T10:13:58;4.03;;;2.67;;
2868;SDS011;1442;47.448;8.582;2023-04-03T10:16:27;3.58;;;2.63;;
2868;SDS011;1442;47.448;8.582;2023-04-03T10:19:02;3.17;;;2.83;;
2868;SDS011;1442;47.448;8.582;2023-04-03T10:21:35;5.75;;;2.58;;
2868;SDS011;1442;47.448;8.582;2023-04-03T10:24:07;2.72;;;2.15;;
2868;SDS011;1442;47.448;8.582;2023-04-03T10:26:37;3.70;;;2.73;;
2868;SDS011;1442;47.448;8.582;2023-04-03T10:29:09;3.88;;;3.10;;
2868;SDS011;1442;47.448;8.582;2023-04-03T10:31:40;3.60;;;2.60;;
2868;SDS011;1442;47.448;8.582;2023-04-03T10:34:11;2.53;;;2.33;;
2868;SDS011;1442;47.448;8.582;2023-04-03T10:36:43;3.88;;;2.53;;
2868;SDS011;1442;47.448;8.582;2023-04-03T10:39:15;5.43;;;2.58;;
2868;SDS011;1442;47.448;8.582;2023-04-03T10:41:48;3.78;;;2.50;;
2868;SDS011;1442;47.448;8.582;2023-04-03T10:44:20;3.72;;;2.47;;
2868;SDS011;1442;47.448;8.582;2023-04-03T10:46:52;3.08;;;2.65;;
2868;SDS011;1442;47.448;8.582;2023-04-03T10:49:23;4.03;;;2.70;;
2868;SDS011;1442;47.448;8.582;2023-04-03T10:51:55;2.13;;;1.88;;
2868;SDS011;1442;47.448;8.582;2023-04-03T10:54:26;7.43;;;2.72;;
2868;SDS011;1442;47.448;8.582;2023-04-03T10:56:54;4.90;;;2.97;;
2868;SDS011;1442;47.448;8.582;2023-04-03T10:59:23;4.93;;;2.88;;
2868;SDS011;1442;47.448;8.582;2023-04-03T11:01:53;18.70;;;7.68;;
2868;SDS011;1442;47.448;8.582;2023-04-03T11:04:22;5.45;;;4.15;;
2868;SDS011;1442;47.448;8.582;2023-04-03T11:06:52;7.20;;;3.15;;
2868;SDS011;1442;47.448;8.582;2023-04-03T11:09:23;8.18;;;2.90;;
2868;SDS011;1442;47.448;8.582;2023-04-03T11:11:53;6.73;;;3.13;;
2868;SDS011;1442;47.448;8.582;2023-04-03T11:14:24;7.25;;;2.80;;
2868;SDS011;1442;47.448;8.582;2023-04-03T11:16:55;15.75;;;4.00;;
2868;SDS011;1442;47.448;8.582;2023-04-03T11:19:28;6.88;;;3.20;;
2868;SDS011;1442;47.448;8.582;2023-04-03T11:22:00;4.30;;;2.95;;
2868;SDS011;1442;47.448;8.582;2023-04-03T11:24:32;7.28;;;3.10;;
2868;SDS011;1442;47.448;8.582;2023-04-03T11:27:00;7.90;;;2.65;;
2868;SDS011;1442;47.448;8.582;2023-04-03T11:29:30;7.88;;;2.53;;
2868;SDS011;1442;47.448;8.582;2023-04-03T11:32:03;11.55;;;2.88;;
2868;SDS011;1442;47.448;8.582;2023-04-03T11:34:34;9.48;;;3.10;;
2868;SDS011;1442;47.448;8.582;2023-04-03T11:37:04;4.70;;;2.60;;
2868;SDS011;1442;47.448;8.582;2023-04-03T11:39:35;4.90;;;3.05;;
2868;SDS011;1442;47.448;8.582;2023-04-03T11:42:13;7.38;;;2.80;;
2868;SDS011;1442;47.448;8.582;2023-04-03T11:44:41;7.03;;;2.95;;
2868;SDS011;1442;47.448;8.582;2023-04-03T11:47:09;16.35;;;3.22;;
2868;SDS011;1442;47.448;8.582;2023-04-03T11:49:50;6.35;;;3.10;;
2868;SDS011;1442;47.448;8.582;2023-04-03T11:55:00;4.03;;;2.90;;
2868;SDS011;1442;47.448;8.582;2023-04-03T11:57:43;6.40;;;3.42;;
2868;SDS011;1442;47.448;8.582;2023-04-03T12:02:58;3.92;;;2.78;;
2868;SDS011;1442;47.448;8.582;2023-04-03T12:05:26;4.05;;;3.00;;
2868;SDS011;1442;47.448;8.582;2023-04-03T12:10:37;4.53;;;2.78;;
2868;SDS011;1442;47.448;8.582;2023-04-03T12:13:12;5.65;;;2.97;;
2868;SDS011;1442;47.448;8.582;2023-04-03T12:21:10;8.93;;;2.70;;
2868;SDS011;1442;47.448;8.582;2023-04-03T12:26:21;5.25;;;2.80;;
2868;SDS011;1442;47.448;8.582;2023-04-03T12:28:50;4.45;;;3.08;;
2868;SDS011;1442;47.448;8.582;2023-04-03T12:31:18;4.97;;;2.78;;
2868;SDS011;1442;47.448;8.582;2023-04-03T12:33:51;9.35;;;3.50;;
2868;SDS011;1442;47.448;8.582;2023-04-03T12:36:26;5.28;;;2.83;;
2868;SDS011;1442;47.448;8.582;2023-04-03T12:39:01;10.50;;;3.97;;
2868;SDS011;1442;47.448;8.582;2023-04-03T12:41:34;6.03;;;2.90;;
2868;SDS011;1442;47.448;8.582;2023-04-03T12:44:09;11.05;;;3.42;;
2868;SDS011;1442;47.448;8.582;2023-04-03T12:46:43;12.07;;;3.42;;
2868;SDS011;1442;47.448;8.582;2023-04-03T12:54:46;6.47;;;2.90;;
2868;SDS011;1442;47.448;8.582;2023-04-03T12:57:18;4.43;;;2.55;;
2868;SDS011;1442;47.448;8.582;2023-04-03T12:59:45;4.28;;;2.25;;
2868;SDS011;1442;47.448;8.582;2023-04-03T13:02:23;5.57;;;2.38;;
2868;SDS011;1442;47.448;8.582;2023-04-03T13:04:51;10.35;;;2.60;;
2868;SDS011;1442;47.448;8.582;2023-04-03T13:07:20;6.25;;;2.78;;
2868;SDS011;1442;47.448;8.582;2023-04-03T13:09:55;4.93;;;2.70;;
2868;SDS011;1442;47.448;8.582;2023-04-03T13:12:23;4.70;;;2.63;;
2868;SDS011;1442;47.448;8.582;2023-04-03T13:14:51;10.98;;;2.85;;
2868;SDS011;1442;47.448;8.582;2023-04-03T13:17:19;5.28;;;3.05;;
2868;SDS011;1442;47.448;8.582;2023-04-03T13:19:46;3.83;;;2.70;;
2868;SDS011;1442;47.448;8.582;2023-04-03T13:22:19;6.28;;;2.67;;
2868;SDS011;1442;47.448;8.582;2023-04-03T13:24:49;6.35;;;2.42;;
2868;SDS011;1442;47.448;8.582;2023-04-03T13:27:18;3.53;;;2.67;;
2868;SDS011;1442;47.448;8.582;2023-04-03T13:29:49;5.30;;;3.03;;
2868;SDS011;1442;47.448;8.582;2023-04-03T13:32:18;3.70;;;2.42;;
2868;SDS011;1442;47.448;8.582;2023-04-03T13:34:46;5.93;;;2.60;;
2868;SDS011;1442;47.448;8.582;2023-04-03T13:37:20;4.90;;;2.38;;
2868;SDS011;1442;47.448;8.582;2023-04-03T13:39:56;4.05;;;2.38;;
2868;SDS011;1442;47.448;8.582;2023-04-03T13:42:24;7.15;;;3.00;;
2868;SDS011;1442;47.448;8.582;2023-04-03T13:47:48;4.80;;;2.50;;
2868;SDS011;1442;47.448;8.582;2023-04-03T13:50:17;10.48;;;2.80;;
2868;SDS011;1442;47.448;8.582;2023-04-03T13:52:45;6.82;;;3.17;;
2868;SDS011;1442;47.448;8.582;2023-04-03T13:55:18;15.45;;;2.70;;
2868;SDS011;1442;47.448;8.582;2023-04-03T13:57:52;18.75;;;2.95;;
2868;SDS011;1442;47.448;8.582;2023-04-03T14:00:21;15.07;;;3.38;;
2868;SDS011;1442;47.448;8.582;2023-04-03T14:02:50;9.70;;;2.65;;
2868;SDS011;1442;47.448;8.582;2023-04-03T14:05:21;5.63;;;2.97;;
2868;SDS011;1442;47.448;8.582;2023-04-03T14:07:50;4.72;;;2.42;;
2868;SDS011;1442;47.448;8.582;2023-04-03T14:10:17;10.50;;;2.40;;
2868;SDS011;1442;47.448;8.582;2023-04-03T14:12:44;7.50;;;2.58;;
2868;SDS011;1442;47.448;8.582;2023-04-03T14:15:15;5.38;;;2.42;;
2868;SDS011;1442;47.448;8.582;2023-04-03T14:17:43;9.32;;;2.47;;
2868;SDS011;1442;47.448;8.582;2023-04-03T14:20:14;5.68;;;2.45;;
2868;SDS011;1442;47.448;8.582;2023-04-03T14:22:41;6.00;;;2.78;;
2868;SDS011;1442;47.448;8.582;2023-04-03T14:25:08;6.72;;;2.53;;
2868;SDS011;1442;47.448;8.582;2023-04-03T14:27:36;8.93;;;2.05;;
2868;SDS011;1442;47.448;8.582;2023-04-03T14:30:05;3.10;;;2.05;;
2868;SDS011;1442;47.448;8.582;2023-04-03T14:32:32;4.63;;;2.70;;
2868;SDS011;1442;47.448;8.582;2023-04-03T14:34:59;7.68;;;2.47;;
2868;SDS011;1442;47.448;8.582;2023-04-03T14:37:29;3.17;;;2.45;;
2868;SDS011;1442;47.448;8.582;2023-04-03T14:39:56;7.82;;;2.28;;
2868;SDS011;1442;47.448;8.582;2023-04-03T14:42:25;3.92;;;2.40;;
2868;SDS011;1442;47.448;8.582;2023-04-03T14:44:52;4.32;;;2.03;;
2868;SDS011;1442;47.448;8.582;2023-04-03T14:47:20;6.50;;;2.50;;
2868;SDS011;1442;47.448;8.582;2023-04-03T14:49:48;3.47;;;2.08;;
2868;SDS011;1442;47.448;8.582;2023-04-03T14:52:16;11.98;;;2.47;;
2868;SDS011;1442;47.448;8.582;2023-04-03T14:54:45;6.30;;;2.28;;
2868;SDS011;1442;47.448;8.582;2023-04-03T14:57:13;2.53;;;2.08;;
2868;SDS011;1442;47.448;8.582;2023-04-03T14:59:41;3.25;;;2.33;;
2868;SDS011;1442;47.448;8.582;2023-04-03T15:02:11;4.22;;;2.08;;
2868;SDS011;1442;47.448;8.582;2023-04-03T15:04:43;6.00;;;1.98;;
2868;SDS011;1442;47.448;8.582;2023-04-03T15:07:10;3.17;;;1.83;;
2868;SDS011;1442;47.448;8.582;2023-04-03T15:09:37;2.97;;;2.22;;
2868;SDS011;1442;47.448;8.582;2023-04-03T15:12:07;2.83;;;1.85;;
2868;SDS011;1442;47.448;8.582;2023-04-03T15:14:34;4.72;;;1.98;;
2868;SDS011;1442;47.448;8.582;2023-04-03T15:17:02;2.00;;;1.80;;
2868;SDS011;1442;47.448;8.582;2023-04-03T15:19:29;2.78;;;2.10;;
2868;SDS011;1442;47.448;8.582;2023-04-03T15:21:56;3.22;;;2.03;;
2868;SDS011;1442;47.448;8.582;2023-04-03T15:24:24;3.22;;;2.28;;
2868;SDS011;1442;47.448;8.582;2023-04-03T15:26:51;4.72;;;2.10;;
2868;SDS011;1442;47.448;8.582;2023-04-03T15:29:19;3.92;;;2.13;;
2868;SDS011;1442;47.448;8.582;2023-04-03T15:31:47;4.40;;;2.15;;
2868;SDS011;1442;47.448;8.582;2023-04-03T15:34:14;3.25;;;2.63;;
2868;SDS011;1442;47.448;8.582;2023-04-03T15:36:42;4.97;;;2.33;;
2868;SDS011;1442;47.448;8.582;2023-04-03T15:39:09;2.47;;;2.17;;
2868;SDS011;1442;47.448;8.582;2023-04-03T15:41:36;1.95;;;1.75;;
2868;SDS011;1442;47.448;8.582;2023-04-03T15:44:03;3.08;;;2.13;;
2868;SDS011;1442;47.448;8.582;2023-04-03T15:46:32;5.60;;;2.30;;
2868;SDS011;1442;47.448;8.582;2023-04-03T15:49:00;5.00;;;2.08;;